Time;durP1;ratioP1;P1;durP2;ratioP2;P2;SDS_P1;SDS_P2;PMS_P1;PMS_P2;Temp;Humidity;BMP_temperature;BMP_pressure;BME280_temperature;BME280_humidity;BME280_pressure;Samples;Min_cycle;Max_cycle;Signal;HPM_P1;HPM_P2
2023/03/20 00:00:07;;;;;;;3.60;0.57;;;9.70;99.70;;;;;;4979553;28;87776;-72
2023/03/20 00:02:33;;;;;;;2.35;0.65;;;9.60;99.80;;;;;;4985554;28;87507;-73
2023/03/20 00:04:59;;;;;;;1.92;0.63;;;9.60;99.90;;;;;;4985428;28;86331;-71
2023/03/20 00:07:25;;;;;;;2.13;0.82;;;9.60;99.90;;;;;;4979754;28;87751;-71
2023/03/20 00:09:50;;;;;;;2.08;0.82;;;9.60;99.90;;;;;;4972122;28;87748;-71
2023/03/20 00:12:24;;;;;;;2.10;0.70;;;9.60;99.90;;;;;;4978807;28;88434;-72
2023/03/20 00:14:50;;;;;;;1.63;0.80;;;9.60;99.90;;;;;;4992969;28;87342;-71
2023/03/20 00:17:19;;;;;;;3.03;0.90;;;9.60;99.90;;;;;;4997725;28;88330;-72
2023/03/20 00:19:45;;;;;;;2.10;0.82;;;9.60;99.90;;;;;;5000074;28;87261;-72
2023/03/20 00:22:11;;;;;;;2.58;0.80;;;9.60;99.90;;;;;;4989832;28;86912;-72
2023/03/20 00:24:37;;;;;;;2.58;1.35;;;9.50;99.90;;;;;;4974653;28;87365;-70
2023/03/20 00:27:04;;;;;;;2.88;1.10;;;9.50;99.90;;;;;;4976277;28;88386;-71
2023/03/20 00:29:31;;;;;;;3.25;0.85;;;9.50;99.90;;;;;;4984612;28;87249;-72
2023/03/20 00:31:58;;;;;;;2.75;1.08;;;9.50;99.90;;;;;;4986816;28;87520;-71
2023/03/20 00:34:26;;;;;;;2.30;0.95;;;9.50;99.90;;;;;;4979670;28;87241;-72
2023/03/20 00:36:52;;;;;;;2.80;0.65;;;9.50;99.90;;;;;;4977595;28;88660;-73
2023/03/20 00:39:19;;;;;;;3.33;1.15;;;9.50;99.90;;;;;;4980326;28;87981;-73
2023/03/20 00:41:56;;;;;;;4.88;1.20;;;9.50;99.90;;;;;;4973823;28;87089;-73
2023/03/20 00:44:37;;;;;;;2.95;1.17;;;9.50;99.90;;;;;;4978334;28;87431;-73
2023/03/20 00:47:11;;;;;;;2.80;1.17;;;9.50;99.90;;;;;;4981010;28;88664;-73
2023/03/20 00:49:37;;;;;;;2.33;1.23;;;9.50;99.90;;;;;;4977138;28;87252;-73
2023/03/20 00:52:04;;;;;;;2.65;1.38;;;9.50;99.90;;;;;;4978083;28;87627;-73
2023/03/20 00:54:31;;;;;;;4.28;1.35;;;9.60;99.90;;;;;;4979889;28;87762;-71
2023/03/20 00:57:22;;;;;;;2.88;1.13;;;9.60;99.90;;;;;;4980041;28;88178;-74
2023/03/20 01:00:05;;;;;;;3.05;1.15;;;9.70;99.90;;;;;;4972851;28;87759;-74
2023/03/20 01:02:32;;;;;;;2.35;1.00;;;9.80;99.90;;;;;;4971117;28;88448;-72
2023/03/20 01:04:57;;;;;;;4.22;0.82;;;9.80;99.90;;;;;;4976940;28;87363;-73
2023/03/20 01:07:23;;;;;;;2.83;0.82;;;9.80;99.90;;;;;;4989853;28;88328;-72
2023/03/20 01:09:49;;;;;;;2.35;1.00;;;9.70;99.90;;;;;;4987081;28;87636;-72
2023/03/20 01:12:16;;;;;;;2.97;0.65;;;9.70;99.90;;;;;;4978371;28;87262;-72
2023/03/20 01:14:42;;;;;;;2.67;0.75;;;9.70;99.90;;;;;;4989795;28;87571;-72
2023/03/20 01:17:17;;;;;;;1.80;0.63;;;9.70;99.90;;;;;;4972463;28;87569;-73
2023/03/20 01:19:43;;;;;;;2.58;0.68;;;9.70;99.90;;;;;;4965086;28;87299;-72
2023/03/20 01:22:08;;;;;;;1.35;0.40;;;9.70;99.90;;;;;;4978267;28;87296;-72
2023/03/20 01:24:34;;;;;;;1.40;0.43;;;9.80;99.50;;;;;;4978920;28;87651;-72
2023/03/20 01:27:02;;;;;;;1.60;0.50;;;9.80;99.30;;;;;;4973665;28;89313;-71
2023/03/20 01:29:31;;;;;;;4.90;0.60;;;9.80;99.30;;;;;;4977721;28;88817;-72
2023/03/20 01:31:57;;;;;;;1.88;0.77;;;9.80;99.50;;;;;;4982923;28;87662;-73
2023/03/20 01:34:23;;;;;;;2.65;0.57;;;9.80;99.40;;;;;;4975992;28;89044;-72
2023/03/20 01:36:54;;;;;;;3.47;0.77;;;9.80;99.20;;;;;;4967087;28;87615;-72
2023/03/20 01:39:27;;;;;;;2.00;0.68;;;9.80;99.10;;;;;;4977400;28;87988;-73
2023/03/20 01:41:53;;;;;;;2.70;1.02;;;9.80;98.80;;;;;;4977688;28;89109;-72
2023/03/20 01:44:21;;;;;;;2.00;0.70;;;9.80;99.10;;;;;;4983605;28;86851;-72
2023/03/20 01:46:47;;;;;;;2.38;0.70;;;9.80;98.90;;;;;;4968309;28;88354;-73
2023/03/20 01:49:19;;;;;;;2.65;1.02;;;9.80;98.80;;;;;;4986915;28;87761;-73
2023/03/20 01:51:45;;;;;;;2.53;0.90;;;9.90;98.60;;;;;;4980980;28;88263;-71
2023/03/20 01:54:20;;;;;;;3.10;0.80;;;9.90;98.30;;;;;;4974972;28;87149;-73
2023/03/20 01:56:52;;;;;;;1.73;0.52;;;10.00;98.00;;;;;;4977302;28;88059;-72
2023/03/20 01:59:27;;;;;;;3.55;0.93;;;10.00;97.80;;;;;;4972956;28;87461;-73
2023/03/20 02:01:53;;;;;;;3.50;0.82;;;10.00;97.70;;;;;;4965625;28;87390;-73
2023/03/20 02:04:24;;;;;;;2.72;1.10;;;10.00;97.80;;;;;;4978207;28;87324;-74
2023/03/20 02:06:50;;;;;;;2.85;1.23;;;10.00;97.80;;;;;;4976322;28;88184;-73
2023/03/20 02:09:16;;;;;;;2.92;1.10;;;9.90;97.90;;;;;;4982977;28;88188;-73
2023/03/20 02:11:45;;;;;;;1.73;0.75;;;9.90;97.90;;;;;;4983692;28;87509;-73
2023/03/20 02:14:12;;;;;;;2.03;0.85;;;9.90;98.00;;;;;;4978705;28;87339;-73
2023/03/20 02:16:37;;;;;;;3.03;1.20;;;9.90;98.20;;;;;;4977069;28;89105;-73
2023/03/20 02:19:06;;;;;;;4.30;1.60;;;9.90;98.30;;;;;;4984017;28;88302;-73
2023/03/20 02:21:41;;;;;;;3.03;1.10;;;9.90;98.60;;;;;;4983273;28;87491;-74
2023/03/20 02:24:29;;;;;;;2.08;1.15;;;10.00;98.40;;;;;;4977091;28;87547;-73
2023/03/20 02:27:16;;;;;;;2.83;1.33;;;10.00;98.20;;;;;;4973140;28;88230;-73
2023/03/20 02:30:13;;;;;;;2.78;1.05;;;10.10;98.20;;;;;;4974556;28;87491;-73
2023/03/20 02:33:00;;;;;;;2.63;1.27;;;10.10;97.80;;;;;;4978244;28;87576;-73
2023/03/20 02:35:53;;;;;;;2.08;1.02;;;10.10;97.70;;;;;;4976684;28;86646;-73
2023/03/20 02:38:19;;;;;;;2.40;0.73;;;10.10;97.60;;;;;;4977619;28;88020;-73
2023/03/20 02:41:11;;;;;;;2.22;0.65;;;10.10;97.80;;;;;;4977645;28;87414;-74
2023/03/20 02:44:14;;;;;;;1.33;0.60;;;10.00;98.00;;;;;;4975662;28;88125;-74
2023/03/20 02:46:53;;;;;;;1.55;0.38;;;10.00;98.30;;;;;;4976255;28;89481;-73
2023/03/20 02:50:13;;;;;;;0.70;0.10;;;9.90;98.50;;;;;;4977138;28;87886;-74
2023/03/20 02:52:51;;;;;;;1.08;0.10;;;9.80;98.30;;;;;;4970803;28;87491;-73
2023/03/20 02:55:38;;;;;;;0.57;0.10;;;9.80;98.30;;;;;;4973379;28;87444;-73
2023/03/20 02:58:16;;;;;;;0.95;0.20;;;9.80;98.50;;;;;;4983512;28;87373;-74
2023/03/20 03:00:51;;;;;;;0.73;0.20;;;9.80;98.20;;;;;;4981359;28;88360;-73
2023/03/20 03:03:23;;;;;;;1.20;0.13;;;9.80;98.20;;;;;;4977460;28;87100;-73
2023/03/20 03:06:20;;;;;;;2.70;0.10;;;9.70;98.10;;;;;;4976779;28;88751;-73
2023/03/20 03:08:54;;;;;;;1.88;0.32;;;9.70;98.10;;;;;;4971476;28;87309;-73
2023/03/20 03:11:20;;;;;;;1.15;0.20;;;9.70;97.90;;;;;;4982898;28;88817;-73
2023/03/20 03:13:52;;;;;;;0.57;0.10;;;9.70;97.80;;;;;;4977019;28;88664;-72
2023/03/20 03:16:32;;;;;;;2.47;0.10;;;9.80;97.70;;;;;;4986136;28;87389;-72
2023/03/20 03:19:12;;;;;;;1.63;0.52;;;9.70;97.80;;;;;;4980967;28;87182;-73
2023/03/20 03:21:39;;;;;;;1.73;0.52;;;9.70;98.00;;;;;;4980285;28;87970;-73
2023/03/20 03:24:05;;;;;;;2.75;1.05;;;9.60;98.10;;;;;;4979874;28;88358;-73
2023/03/20 03:26:37;;;;;;;1.70;0.52;;;9.60;98.30;;;;;;4978577;28;87471;-73
2023/03/20 03:29:10;;;;;;;1.50;0.30;;;9.60;98.60;;;;;;4976225;28;86984;-73
2023/03/20 03:31:37;;;;;;;1.30;0.45;;;9.60;98.70;;;;;;4987359;28;87771;-73
2023/03/20 03:34:04;;;;;;;1.73;0.30;;;9.60;98.80;;;;;;4982757;28;87916;-72
2023/03/20 03:36:51;;;;;;;3.03;0.30;;;9.70;99.00;;;;;;4974711;28;88322;-73
2023/03/20 03:39:23;;;;;;;2.20;0.30;;;9.70;99.20;;;;;;4985325;28;87127;-73
2023/03/20 03:42:16;;;;;;;2.45;0.50;;;9.70;99.20;;;;;;4972698;28;87545;-73
2023/03/20 03:44:57;;;;;;;2.13;0.30;;;9.70;99.50;;;;;;4979670;28;89207;-72
2023/03/20 03:47:31;;;;;;;3.28;0.40;;;9.70;99.70;;;;;;4982075;28;87331;-71
2023/03/20 03:50:30;;;;;;;2.22;0.60;;;9.70;99.90;;;;;;4974797;28;87499;-72
2023/03/20 03:53:00;;;;;;;3.08;1.00;;;9.60;99.90;;;;;;4979037;28;87769;-72
2023/03/20 03:55:35;;;;;;;2.88;0.80;;;9.70;99.90;;;;;;4981271;28;87347;-72
2023/03/20 03:58:04;;;;;;;2.72;1.13;;;9.70;99.90;;;;;;4977766;28;88713;-72
2023/03/20 04:00:32;;;;;;;2.88;1.13;;;9.70;99.90;;;;;;4987538;28;87494;-72
2023/03/20 04:02:58;;;;;;;3.30;1.40;;;9.70;99.90;;;;;;4979174;28;88981;-73
2023/03/20 04:05:30;;;;;;;3.10;1.10;;;9.70;99.90;;;;;;4998422;28;88764;-73
2023/03/20 04:07:58;;;;;;;3.08;1.13;;;9.70;99.90;;;;;;4972104;28;87773;-73
2023/03/20 04:10:24;;;;;;;2.78;1.40;;;9.80;99.90;;;;;;4978746;28;87626;-72
2023/03/20 04:12:50;;;;;;;4.43;1.48;;;9.80;99.90;;;;;;4980055;28;88210;-73
2023/03/20 04:15:16;;;;;;;4.20;1.95;;;9.70;99.90;;;;;;4978861;28;87389;-73
2023/03/20 04:17:42;;;;;;;6.43;2.03;;;9.70;99.90;;;;;;4972382;28;87529;-72
2023/03/20 04:20:10;;;;;;;3.70;1.92;;;9.70;99.90;;;;;;4973322;28;87849;-72
2023/03/20 04:22:35;;;;;;;4.03;1.73;;;9.80;99.90;;;;;;4968001;28;88483;-72
2023/03/20 04:25:02;;;;;;;3.53;1.63;;;9.80;99.90;;;;;;4964264;28;87864;-71
2023/03/20 04:27:28;;;;;;;4.28;1.33;;;9.80;99.90;;;;;;4972897;28;88884;-72
2023/03/20 04:29:54;;;;;;;3.53;1.30;;;9.90;99.90;;;;;;4974843;28;87441;-71
2023/03/20 04:32:20;;;;;;;4.07;1.58;;;9.90;99.90;;;;;;4962573;28;89320;-72
2023/03/20 04:34:46;;;;;;;2.72;1.13;;;9.90;99.90;;;;;;4968420;28;88555;-72
2023/03/20 04:37:12;;;;;;;5.00;1.60;;;10.00;99.60;;;;;;4972237;28;87550;-72
2023/03/20 04:39:37;;;;;;;3.28;1.35;;;10.00;99.60;;;;;;4975571;28;88288;-72
2023/03/20 04:42:04;;;;;;;2.55;1.30;;;10.00;99.50;;;;;;4981948;28;88129;-72
2023/03/20 04:44:30;;;;;;;3.45;1.70;;;10.00;99.60;;;;;;4992806;28;87316;-71
2023/03/20 04:46:56;;;;;;;4.55;1.90;;;9.90;99.50;;;;;;4978317;28;87467;-71
2023/03/20 04:49:22;;;;;;;3.53;1.75;;;9.90;99.80;;;;;;4978180;28;88996;-72
2023/03/20 04:51:48;;;;;;;3.65;1.80;;;10.00;99.60;;;;;;4971619;28;89497;-73
2023/03/20 04:54:14;;;;;;;3.33;1.55;;;10.00;99.50;;;;;;4973939;28;88160;-73
2023/03/20 04:56:39;;;;;;;3.70;1.77;;;10.00;99.60;;;;;;4984027;28;87468;-73
2023/03/20 04:59:05;;;;;;;2.85;1.25;;;10.10;99.60;;;;;;4963216;28;87494;-73
2023/03/20 05:01:31;;;;;;;3.35;0.93;;;10.00;99.60;;;;;;4968884;28;87795;-74
2023/03/20 05:03:59;;;;;;;4.97;0.95;;;10.00;99.80;;;;;;4968822;28;88355;-73
2023/03/20 05:06:30;;;;;;;3.30;1.23;;;10.00;99.90;;;;;;4984932;28;88769;-73
2023/03/20 05:08:57;;;;;;;5.65;2.42;;;10.00;99.80;;;;;;4964515;28;88122;-73
2023/03/20 05:11:27;;;;;;;4.03;2.40;;;10.00;99.80;;;;;;4973652;28;87621;-73
2023/03/20 05:13:53;;;;;;;5.85;1.88;;;10.00;99.70;;;;;;4970720;28;87655;-72
2023/03/20 05:16:18;;;;;;;6.45;2.58;;;10.10;99.30;;;;;;4969098;28;88368;-73
2023/03/20 05:18:44;;;;;;;4.63;2.33;;;10.10;99.40;;;;;;4964746;28;89158;-73
2023/03/20 05:21:10;;;;;;;4.47;2.47;;;10.10;99.50;;;;;;4971931;28;88661;-73
2023/03/20 05:23:37;;;;;;;4.70;2.25;;;10.10;99.50;;;;;;4971393;28;88692;-73
2023/03/20 05:26:03;;;;;;;3.72;2.20;;;10.10;99.40;;;;;;4974335;28;88604;-73
2023/03/20 05:28:29;;;;;;;4.88;2.17;;;10.10;99.60;;;;;;4969750;28;87433;-73
2023/03/20 05:30:55;;;;;;;5.03;2.40;;;10.10;99.40;;;;;;4978671;28;88920;-73
2023/03/20 05:33:21;;;;;;;4.32;2.05;;;10.10;99.70;;;;;;4979268;28;88217;-73
2023/03/20 05:35:47;;;;;;;5.43;2.30;;;10.00;99.80;;;;;;4972688;28;87573;-73
2023/03/20 05:38:13;;;;;;;4.75;2.20;;;10.00;99.80;;;;;;4977322;28;87523;-73
2023/03/20 05:40:40;;;;;;;4.80;2.50;;;10.10;99.60;;;;;;4972097;28;89505;-73
2023/03/20 05:43:06;;;;;;;5.13;2.42;;;10.20;99.20;;;;;;4968003;28;89299;-73
2023/03/20 05:45:32;;;;;;;5.07;2.47;;;10.20;99.00;;;;;;4968107;28;88580;-74
2023/03/20 05:47:58;;;;;;;4.78;2.60;;;10.20;98.80;;;;;;4973041;28;87383;-72
2023/03/20 05:50:23;;;;;;;4.43;2.20;;;10.30;98.60;;;;;;4972557;28;87769;-72
2023/03/20 05:52:49;;;;;;;4.80;2.25;;;10.20;98.70;;;;;;4975863;28;89044;-73
2023/03/20 05:55:15;;;;;;;4.25;2.05;;;10.30;99.00;;;;;;4971741;28;87692;-73
2023/03/20 05:57:41;;;;;;;3.78;2.13;;;10.30;98.80;;;;;;4973228;28;87813;-72
2023/03/20 06:00:09;;;;;;;5.03;2.38;;;10.30;98.70;;;;;;4973366;28;88968;-73
2023/03/20 06:02:35;;;;;;;6.38;2.30;;;10.20;99.10;;;;;;4965100;28;89611;-73
2023/03/20 06:05:01;;;;;;;5.53;1.83;;;10.30;99.10;;;;;;4969059;28;88296;-73
2023/03/20 06:07:27;;;;;;;6.20;2.15;;;10.30;98.90;;;;;;4972717;28;87319;-73
2023/03/20 06:09:53;;;;;;;5.72;2.25;;;10.30;99.00;;;;;;4972563;28;87564;-73
2023/03/20 06:12:19;;;;;;;8.68;2.45;;;10.30;99.10;;;;;;4973437;28;89169;-71
2023/03/20 06:14:45;;;;;;;6.60;2.22;;;10.40;99.00;;;;;;4973062;28;87024;-73
2023/03/20 06:17:10;;;;;;;8.60;2.72;;;10.50;98.60;;;;;;4977861;28;87148;-73
2023/03/20 06:19:37;;;;;;;5.68;2.60;;;10.50;98.50;;;;;;4974080;28;88548;-73
2023/03/20 06:22:03;;;;;;;5.43;2.50;;;10.50;99.00;;;;;;4970493;28;88431;-73
2023/03/20 06:24:29;;;;;;;8.80;2.88;;;10.50;99.20;;;;;;4965273;28;89411;-73
2023/03/20 06:26:55;;;;;;;7.20;2.95;;;10.50;99.00;;;;;;4972203;28;87466;-72
2023/03/20 06:29:21;;;;;;;6.80;3.45;;;10.50;99.10;;;;;;4977175;28;88714;-73
2023/03/20 06:31:46;;;;;;;5.68;2.95;;;10.60;99.00;;;;;;4967894;28;88622;-73
2023/03/20 06:34:12;;;;;;;7.13;3.03;;;10.60;98.90;;;;;;4966960;28;89062;-73
2023/03/20 06:36:38;;;;;;;5.45;3.22;;;10.50;98.90;;;;;;4972120;28;89003;-73
2023/03/20 06:39:04;;;;;;;5.53;2.75;;;10.50;99.10;;;;;;4970786;28;87662;-73
2023/03/20 06:41:30;;;;;;;6.28;3.28;;;10.50;98.90;;;;;;4971162;28;87738;-73
2023/03/20 06:43:55;;;;;;;6.38;3.50;;;10.60;98.90;;;;;;4967915;28;87428;-72
2023/03/20 06:46:21;;;;;;;11.57;3.83;;;10.60;98.80;;;;;;4975886;28;86711;-73
2023/03/20 06:48:47;;;;;;;6.63;2.92;;;10.60;98.60;;;;;;4976613;28;88693;-73
2023/03/20 06:51:14;;;;;;;10.18;2.80;;;10.50;98.90;;;;;;4989766;28;87502;-73
2023/03/20 06:53:42;;;;;;;9.48;3.13;;;10.50;99.00;;;;;;4984804;28;88016;-73
2023/03/20 06:56:11;;;;;;;6.65;2.60;;;10.60;98.70;;;;;;4977130;28;88214;-73
2023/03/20 06:58:37;;;;;;;29.67;3.83;;;10.70;98.60;;;;;;4966324;28;88053;-73
2023/03/20 07:01:16;;;;;;;7.72;3.15;;;10.70;98.60;;;;;;4970790;28;87766;-73
2023/03/20 07:03:42;;;;;;;8.82;3.55;;;10.80;98.00;;;;;;4987675;28;87403;-73
2023/03/20 07:06:08;;;;;;;7.35;3.40;;;10.70;98.80;;;;;;4975807;28;87130;-72
2023/03/20 07:08:35;;;;;;;6.75;3.00;;;10.80;99.10;;;;;;4979056;28;88366;-73
2023/03/20 07:11:03;;;;;;;6.93;3.20;;;10.80;99.00;;;;;;4992579;28;87902;-72
2023/03/20 07:13:29;;;;;;;7.93;2.53;;;10.80;98.50;;;;;;4973719;28;87580;-72
2023/03/20 07:15:57;;;;;;;11.43;2.97;;;10.90;97.90;;;;;;4976880;28;87212;-72
2023/03/20 07:18:24;;;;;;;5.50;2.78;;;10.90;98.20;;;;;;4975988;28;88959;-72
2023/03/20 07:20:51;;;;;;;9.70;3.63;;;11.00;98.20;;;;;;4983913;28;88252;-72
2023/03/20 07:23:18;;;;;;;7.57;3.03;;;11.00;97.60;;;;;;4980562;28;88094;-72
2023/03/20 07:25:44;;;;;;;7.80;2.83;;;11.10;97.30;;;;;;4983726;28;87585;-73
2023/03/20 07:28:10;;;;;;;6.88;3.05;;;11.10;97.20;;;;;;4987741;28;88439;-72
2023/03/20 07:30:36;;;;;;;6.60;3.35;;;11.20;97.30;;;;;;4972494;28;87737;-72
2023/03/20 07:33:02;;;;;;;10.30;4.75;;;11.40;97.10;;;;;;4975369;28;87486;-72
2023/03/20 07:35:27;;;;;;;5.38;2.42;;;11.50;96.40;;;;;;4991942;28;86745;-72
2023/03/20 07:37:53;;;;;;;4.78;2.40;;;11.60;95.10;;;;;;4983518;28;88619;-73
2023/03/20 07:40:19;;;;;;;8.65;3.00;;;11.60;94.90;;;;;;4976023;28;87510;-73
2023/03/20 07:42:46;;;;;;;7.90;3.17;;;11.70;94.40;;;;;;4983756;28;88400;-73
2023/03/20 07:45:13;;;;;;;6.25;3.22;;;11.80;94.10;;;;;;4978139;28;87336;-73
2023/03/20 07:47:38;;;;;;;4.38;2.58;;;11.90;94.00;;;;;;4987354;28;88086;-73
2023/03/20 07:50:05;;;;;;;6.20;2.97;;;12.00;93.70;;;;;;4980066;28;87388;-73
2023/03/20 07:52:31;;;;;;;7.70;3.10;;;12.20;93.10;;;;;;4980121;28;87214;-73
2023/03/20 07:54:56;;;;;;;8.40;3.40;;;12.40;92.60;;;;;;4986621;28;87414;-73
2023/03/20 07:57:22;;;;;;;5.78;3.03;;;12.40;92.30;;;;;;4995274;28;87787;-73
2023/03/20 07:59:48;;;;;;;4.95;3.25;;;12.60;92.10;;;;;;5000480;28;87552;-73
2023/03/20 08:02:15;;;;;;;5.00;2.35;;;12.80;91.90;;;;;;4999792;28;87466;-72
2023/03/20 08:04:42;;;;;;;6.22;2.00;;;13.00;91.50;;;;;;4976808;28;87533;-72
2023/03/20 08:07:07;;;;;;;4.07;2.38;;;13.20;89.90;;;;;;4973793;28;88960;-73
2023/03/20 08:09:34;;;;;;;3.17;1.63;;;13.70;88.40;;;;;;4981802;28;88411;-72
2023/03/20 08:12:00;;;;;;;4.38;1.80;;;14.20;84.30;;;;;;4980022;28;87291;-73
2023/03/20 08:14:26;;;;;;;3.33;2.03;;;14.30;82.50;;;;;;4980474;28;87128;-73
2023/03/20 08:16:51;;;;;;;6.32;2.55;;;14.40;83.70;;;;;;4981134;28;88089;-73
2023/03/20 08:19:17;;;;;;;5.00;2.33;;;14.50;82.80;;;;;;4990263;28;87369;-72
2023/03/20 08:21:43;;;;;;;3.17;1.38;;;14.60;83.30;;;;;;4979837;28;87209;-72
2023/03/20 08:24:09;;;;;;;3.80;2.10;;;14.70;79.70;;;;;;4985388;28;86803;-72
2023/03/20 08:26:35;;;;;;;5.85;3.55;;;14.90;79.70;;;;;;4971708;28;89580;-73
2023/03/20 08:29:01;;;;;;;4.15;1.92;;;15.00;79.60;;;;;;4972226;28;87800;-72
2023/03/20 08:31:26;;;;;;;4.32;2.40;;;14.90;78.00;;;;;;4981282;28;88291;-72
2023/03/20 08:33:54;;;;;;;4.57;2.58;;;14.70;79.90;;;;;;4994518;28;87423;-72
2023/03/20 08:36:20;;;;;;;14.00;7.03;;;14.60;80.90;;;;;;4978784;28;88037;-72
2023/03/20 08:38:48;;;;;;;4.85;2.50;;;14.60;81.50;;;;;;4971167;28;88135;-72
2023/03/20 08:41:15;;;;;;;3.85;2.03;;;14.90;79.90;;;;;;4983188;28;87431;-72
2023/03/20 08:43:40;;;;;;;4.20;1.83;;;15.30;78.90;;;;;;4998166;28;87468;-72
2023/03/20 08:46:06;;;;;;;3.15;1.45;;;16.10;76.60;;;;;;4980003;28;88174;-73
2023/03/20 08:48:32;;;;;;;3.70;1.50;;;16.60;72.50;;;;;;4978230;28;88446;-72
2023/03/20 08:50:58;;;;;;;3.03;1.58;;;16.90;71.30;;;;;;4974794;28;87437;-72
2023/03/20 08:53:24;;;;;;;6.35;2.13;;;17.20;71.60;;;;;;4979078;28;87097;-72
2023/03/20 08:55:51;;;;;;;10.48;1.42;;;17.50;71.10;;;;;;4975939;28;89123;-73
2023/03/20 08:58:18;;;;;;;3.08;1.58;;;17.80;66.90;;;;;;4976571;28;89771;-72
2023/03/20 09:00:44;;;;;;;3.30;1.40;;;18.20;68.30;;;;;;4979165;28;87471;-73
2023/03/20 09:03:18;;;;;;;4.75;1.42;;;18.20;65.30;;;;;;4978726;28;87039;-72
2023/03/20 09:05:46;;;;;;;4.70;1.10;;;18.40;65.40;;;;;;4979715;28;88154;-72
2023/03/20 09:08:12;;;;;;;3.22;1.42;;;18.40;64.90;;;;;;4996649;28;87772;-72
2023/03/20 09:10:37;;;;;;;6.63;1.70;;;18.20;63.10;;;;;;4999017;28;87327;-72
2023/03/20 09:13:03;;;;;;;3.15;1.13;;;17.90;63.70;;;;;;4982164;28;86360;-73
2023/03/20 09:15:29;;;;;;;6.30;1.23;;;17.80;64.60;;;;;;4997968;28;88174;-72
2023/03/20 09:17:55;;;;;;;4.85;1.02;;;17.90;64.30;;;;;;4995428;28;87987;-72
2023/03/20 09:20:20;;;;;;;2.58;1.23;;;17.90;64.50;;;;;;4994923;28;87923;-72
2023/03/20 09:22:46;;;;;;;2.88;1.20;;;18.10;65.00;;;;;;4979664;28;87580;-72
2023/03/20 09:25:12;;;;;;;6.60;1.10;;;18.10;62.90;;;;;;4966831;28;88195;-72
2023/03/20 09:27:38;;;;;;;2.88;1.08;;;18.40;64.50;;;;;;4978797;28;87520;-73
2023/03/20 09:30:06;;;;;;;2.65;1.10;;;18.40;61.10;;;;;;4974539;28;88570;-72
2023/03/20 09:32:32;;;;;;;3.42;0.70;;;18.20;61.50;;;;;;4981003;28;87392;-72
2023/03/20 09:34:58;;;;;;;2.83;0.85;;;18.00;62.70;;;;;;4978326;28;88201;-72
2023/03/20 09:37:24;;;;;;;2.70;0.82;;;18.10;62.10;;;;;;4978456;28;88644;-73
2023/03/20 09:39:49;;;;;;;2.80;0.93;;;18.10;61.50;;;;;;4979470;28;87710;-72
2023/03/20 09:42:30;;;;;;;2.90;1.10;;;18.30;61.60;;;;;;4987732;28;87447;-73
2023/03/20 09:45:32;;;;;;;2.65;0.95;;;18.60;61.00;;;;;;4975454;28;88564;-73
2023/03/20 09:48:19;;;;;;;1.88;0.60;;;19.80;60.60;;;;;;4968567;28;89620;-72
2023/03/20 09:50:59;;;;;;;2.85;0.70;;;20.30;57.50;;;;;;4978599;28;87552;-72
2023/03/20 09:53:32;;;;;;;2.80;0.88;;;20.50;56.40;;;;;;4974125;28;87701;-73
2023/03/20 09:55:59;;;;;;;3.20;0.57;;;20.60;56.40;;;;;;4997084;28;88220;-73
2023/03/20 09:58:36;;;;;;;1.90;0.77;;;20.10;57.80;;;;;;4998080;28;87804;-72
2023/03/20 10:01:05;;;;;;;3.65;0.45;;;19.80;56.30;;;;;;4997850;28;87476;-72
2023/03/20 10:03:55;;;;;;;4.38;0.82;;;19.40;57.30;;;;;;4991679;28;86276;-73
2023/03/20 10:06:21;;;;;;;3.80;0.75;;;19.20;57.30;;;;;;4969646;28;88615;-74
2023/03/20 10:08:46;;;;;;;1.90;0.70;;;18.80;58.70;;;;;;4995218;28;87709;-73
2023/03/20 10:11:14;;;;;;;4.78;0.60;;;18.40;59.90;;;;;;4988724;28;88386;-73
2023/03/20 10:13:55;;;;;;;3.03;0.65;;;18.10;60.40;;;;;;4998296;28;87166;-72
2023/03/20 10:16:48;;;;;;;2.45;0.60;;;17.70;60.50;;;;;;4970332;28;88272;-73
2023/03/20 10:19:34;;;;;;;2.60;0.90;;;18.20;62.30;;;;;;4980132;28;87324;-73
2023/03/20 10:22:28;;;;;;;2.13;0.90;;;21.10;55.20;;;;;;4973560;28;87088;-72
2023/03/20 10:24:59;;;;;;;1.58;0.88;;;23.90;51.40;;;;;;4987859;28;87385;-73
2023/03/20 10:27:56;;;;;;;2.72;0.75;;;24.80;47.50;;;;;;4982171;28;88298;-73
2023/03/20 10:30:39;;;;;;;2.60;0.85;;;24.60;48.50;;;;;;4988219;28;87838;-72
2023/03/20 10:33:17;;;;;;;3.92;0.50;;;22.90;49.30;;;;;;4978506;28;87921;-72
2023/03/20 10:35:52;;;;;;;1.50;0.50;;;21.30;53.00;;;;;;4977733;28;87584;-72
2023/03/20 10:38:46;;;;;;;1.40;0.40;;;20.40;53.10;;;;;;4967924;28;89250;-72
2023/03/20 10:41:27;;;;;;;1.83;0.50;;;19.60;53.90;;;;;;4965156;28;89639;-72
2023/03/20 10:43:56;;;;;;;1.55;0.45;;;19.00;56.20;;;;;;4975491;28;87828;-73
2023/03/20 10:46:26;;;;;;;1.67;0.45;;;18.50;58.20;;;;;;4974819;28;88683;-72
2023/03/20 10:49:42;;;;;;;1.63;0.40;;;18.20;58.50;;;;;;4965408;28;87858;-71
2023/03/20 10:52:22;;;;;;;1.98;0.50;;;18.30;58.10;;;;;;4962884;28;88275;-71
2023/03/20 10:55:00;;;;;;;2.15;0.70;;;18.40;59.40;;;;;;4963143;28;87515;-71
2023/03/20 10:57:35;;;;;;;2.65;0.82;;;18.50;59.10;;;;;;4998346;28;86724;-71
2023/03/20 11:00:00;;;;;;;3.35;0.73;;;18.60;60.50;;;;;;4997416;28;88060;-71
2023/03/20 11:02:31;;;;;;;2.88;0.85;;;18.90;59.70;;;;;;4976611;28;87883;-72
2023/03/20 11:05:05;;;;;;;1.85;0.70;;;19.10;58.80;;;;;;4991915;28;88044;-72
2023/03/20 11:07:34;;;;;;;1.58;0.50;;;19.20;58.10;;;;;;4998121;28;87361;-72
2023/03/20 11:10:09;;;;;;;2.53;0.70;;;19.10;58.50;;;;;;4997161;28;88846;-72
2023/03/20 11:12:49;;;;;;;2.58;0.65;;;19.00;59.40;;;;;;4978641;28;88157;-71
2023/03/20 11:15:32;;;;;;;5.45;0.52;;;18.90;58.90;;;;;;5000168;28;87058;-71
2023/03/20 11:18:04;;;;;;;2.75;0.60;;;19.10;57.80;;;;;;4980079;28;87422;-72
2023/03/20 11:20:42;;;;;;;1.95;0.60;;;19.00;56.70;;;;;;4970364;28;89234;-72
2023/03/20 11:23:18;;;;;;;1.92;0.73;;;18.90;57.50;;;;;;4968761;28;88346;-72
2023/03/20 11:25:50;;;;;;;;;;;18.70;56.10;;;;;;4970982;28;89664;-72
2023/03/20 11:28:35;;;;;;;2.03;0.50;;;18.50;56.20;;;;;;4970842;28;88467;-72
2023/03/20 11:31:09;;;;;;;3.35;1.60;;;18.40;56.20;;;;;;4975817;28;90407;-72
2023/03/20 11:34:10;;;;;;;4.65;2.33;;;18.40;56.80;;;;;;4966946;28;88637;-72
2023/03/20 11:36:39;;;;;;;2.22;0.70;;;18.30;57.50;;;;;;4967332;28;88943;-71
2023/03/20 11:39:14;;;;;;;2.28;0.82;;;18.00;57.50;;;;;;4964522;28;87699;-72
2023/03/20 11:41:52;;;;;;;4.00;0.55;;;17.90;58.40;;;;;;4968832;28;87721;-72
2023/03/20 11:44:23;;;;;;;2.05;0.60;;;17.60;59.40;;;;;;4964251;28;89866;-71
2023/03/20 11:46:58;;;;;;;2.45;0.50;;;17.30;59.60;;;;;;4964940;28;88679;-72
2023/03/20 11:49:26;;;;;;;2.28;0.60;;;17.10;59.10;;;;;;4967950;28;86888;-72
2023/03/20 11:51:54;;;;;;;2.72;0.65;;;17.00;60.90;;;;;;4969807;28;90449;-71
2023/03/20 11:54:23;;;;;;;5.32;0.52;;;16.90;60.70;;;;;;4962088;28;87937;-71
2023/03/20 11:56:57;;;;;;;2.20;0.85;;;16.90;61.10;;;;;;4963161;28;88616;-72
2023/03/20 11:59:34;;;;;;;4.47;0.60;;;16.90;59.20;;;;;;4968221;28;89085;-72
2023/03/20 12:02:04;;;;;;;3.47;0.60;;;16.80;61.10;;;;;;4966204;28;88135;-71
2023/03/20 12:04:40;;;;;;;2.80;0.60;;;16.90;61.50;;;;;;4960932;28;90699;-72
2023/03/20 12:07:34;;;;;;;2.55;0.63;;;17.20;61.30;;;;;;4976272;28;87337;-71
2023/03/20 12:10:09;;;;;;;3.20;0.85;;;17.50;60.60;;;;;;4973935;28;87587;-72
2023/03/20 12:12:56;;;;;;;2.33;0.80;;;17.80;60.10;;;;;;4977839;28;89711;-71
2023/03/20 12:15:48;;;;;;;3.67;0.80;;;17.90;58.60;;;;;;4978702;28;89387;-71
2023/03/20 12:19:01;;;;;;;3.10;0.88;;;18.10;59.50;;;;;;4990915;28;88120;-71
2023/03/20 12:21:42;;;;;;;3.25;1.13;;;18.20;59.40;;;;;;4969860;28;87574;-72
2023/03/20 12:24:14;;;;;;;1.85;0.70;;;18.00;58.30;;;;;;4966886;28;89693;-72
2023/03/20 12:27:07;;;;;;;2.42;0.95;;;17.70;59.60;;;;;;4970656;28;88283;-73
2023/03/20 12:29:59;;;;;;;3.35;1.02;;;17.50;60.60;;;;;;4982067;28;87368;-72
2023/03/20 12:32:34;;;;;;;1.48;0.60;;;17.30;60.50;;;;;;4965825;28;87748;-72
2023/03/20 12:35:17;;;;;;;2.30;0.90;;;17.00;60.50;;;;;;4978583;28;88103;-72
2023/03/20 12:37:43;;;;;;;3.33;0.82;;;16.80;63.10;;;;;;4973836;28;87463;-73
2023/03/20 12:40:16;;;;;;;4.00;1.23;;;16.60;63.30;;;;;;4977716;28;87333;-73
2023/03/20 12:42:56;;;;;;;1.52;0.60;;;16.70;62.50;;;;;;4978136;28;87223;-72
2023/03/20 12:45:32;;;;;;;1.55;0.55;;;16.60;60.80;;;;;;4974059;28;88260;-72
2023/03/20 12:48:08;;;;;;;2.40;0.63;;;16.40;61.30;;;;;;4985902;28;87265;-72
2023/03/20 12:50:35;;;;;;;2.92;0.90;;;16.30;61.10;;;;;;4997349;28;87969;-72
2023/03/20 12:53:10;;;;;;;3.50;0.70;;;16.20;61.40;;;;;;4996732;28;87551;-72
2023/03/20 12:55:50;;;;;;;2.22;0.65;;;16.30;61.50;;;;;;4975933;28;88622;-72
2023/03/20 12:58:34;;;;;;;4.35;1.08;;;16.30;61.90;;;;;;4964872;28;87718;-72
2023/03/20 13:01:27;;;;;;;2.80;0.80;;;16.30;61.60;;;;;;4986562;28;87187;-72
2023/03/20 13:04:05;;;;;;;1.48;0.63;;;16.30;63.60;;;;;;4997250;28;87074;-72
2023/03/20 13:06:58;;;;;;;1.50;0.60;;;16.40;63.40;;;;;;4990902;28;87522;-72
2023/03/20 13:09:27;;;;;;;6.82;0.65;;;16.20;60.70;;;;;;4971889;28;87282;-72
2023/03/20 13:12:14;;;;;;;2.42;0.60;;;16.20;62.10;;;;;;4973690;28;87686;-72